createdAt,value
2019-05-07T00:01:07.912Z,9.70
2019-05-07T00:06:09.670Z,10.67
2019-05-07T00:11:12.617Z,14.40
2019-05-07T00:16:14.394Z,10.00
2019-05-07T00:21:16.236Z,11.13
2019-05-07T00:26:17.671Z,8.57
2019-05-07T00:31:19.227Z,11.33
2019-05-07T00:36:23.081Z,14.73
2019-05-07T00:41:24.927Z,9.50
2019-05-07T00:46:26.352Z,9.23
2019-05-07T00:51:28.240Z,9.43
2019-05-07T00:56:30.038Z,11.30
2019-05-07T01:01:32.357Z,13.77
2019-05-07T01:06:33.950Z,8.60
2019-05-07T01:11:35.715Z,9.70
2019-05-07T01:16:37.091Z,9.70
2019-05-07T01:21:38.643Z,8.30
2019-05-07T01:26:42.403Z,11.40
2019-05-07T01:31:43.580Z,9.33
2019-05-07T01:36:45.110Z,8.77
2019-05-07T01:41:46.635Z,8.00
2019-05-07T01:46:48.168Z,11.17
2019-05-07T01:51:49.673Z,11.43
2019-05-07T01:56:52.193Z,10.73
2019-05-07T02:01:53.836Z,10.43
2019-05-07T02:06:55.386Z,10.43
2019-05-07T02:11:57.247Z,8.27
2019-05-07T02:16:58.809Z,9.93
2019-05-07T02:22:02.583Z,10.63
2019-05-07T02:27:03.750Z,10.87
2019-05-07T02:32:05.617Z,12.37
2019-05-07T02:37:07.023Z,12.10
2019-05-07T02:42:08.549Z,13.10
2019-05-07T02:47:12.729Z,11.77
2019-05-07T02:52:13.893Z,13.17
2019-05-07T02:57:16.954Z,12.57
2019-05-07T03:02:19.017Z,12.20
2019-05-07T03:07:23.900Z,14.27
2019-05-07T03:12:24.756Z,9.90
2019-05-07T03:17:26.185Z,13.40
2019-05-07T03:22:27.659Z,13.07
2019-05-07T03:27:29.413Z,13.73
2019-05-07T03:32:36.531Z,11.70
2019-05-07T03:37:36.315Z,12.37
2019-05-07T03:42:38.136Z,13.20
2019-05-07T03:47:39.646Z,14.07
2019-05-07T03:52:42.841Z,14.57
2019-05-07T03:57:44.980Z,14.03
2019-05-07T04:02:46.390Z,16.40
2019-05-07T04:07:48.192Z,14.80
2019-05-07T04:12:49.776Z,15.43
2019-05-07T04:17:53.703Z,15.60
2019-05-07T04:22:55.576Z,13.07
2019-05-07T04:27:57.078Z,17.00
2019-05-07T04:32:58.597Z,14.17
2019-05-07T04:38:03.422Z,16.93
2019-05-07T04:43:03.807Z,17.23
2019-05-07T04:48:05.291Z,15.63
2019-05-07T04:53:06.837Z,17.57
2019-05-07T04:58:09.213Z,17.30
2019-05-07T05:03:12.937Z,17.90
2019-05-07T05:08:14.536Z,18.93
2019-05-07T05:13:16.157Z,22.10
2019-05-07T05:18:18.212Z,19.57
2019-05-07T05:23:19.916Z,22.33
2019-05-07T05:28:21.983Z,17.97
2019-05-07T05:33:24.284Z,19.80
2019-05-07T05:38:26.127Z,19.50
2019-05-07T05:43:27.662Z,21.77
2019-05-07T05:48:29.164Z,21.07
2019-05-07T05:53:32.716Z,23.40
2019-05-07T05:58:34.236Z,22.57
2019-05-07T06:03:35.728Z,21.90
2019-05-07T06:08:37.251Z,21.53
2019-05-07T06:13:39.214Z,20.33
2019-05-07T06:18:41.975Z,17.10
2019-05-07T06:23:43.573Z,18.00
2019-05-07T06:28:45.178Z,19.87
2019-05-07T06:33:47.376Z,21.47
2019-05-07T06:38:49.757Z,25.27
2019-05-07T06:43:52.158Z,31.40
2019-05-07T06:48:54.270Z,30.40
2019-05-07T06:53:56.904Z,34.80
2019-05-07T06:58:58.691Z,32.33
2019-05-07T07:04:02.628Z,29.67
2019-05-07T07:09:07.948Z,31.33
2019-05-07T07:14:09.342Z,31.30
2019-05-07T07:19:12.422Z,28.33
2019-05-07T07:24:14.127Z,31.30
2019-05-07T07:29:15.632Z,28.67
2019-05-07T07:34:17.481Z,35.93
2019-05-07T07:39:19.303Z,31.57
2019-05-07T07:44:22.339Z,30.40
2019-05-07T07:49:24.248Z,32.40
2019-05-07T07:54:26.307Z,30.70
2019-05-07T07:59:27.878Z,29.93
2019-05-07T08:04:33.374Z,32.50
2019-05-07T08:09:34.912Z,34.00
2019-05-07T08:14:36.447Z,27.67
2019-05-07T08:19:38.337Z,28.23
2019-05-07T08:24:42.395Z,22.87
2019-05-07T08:29:43.789Z,19.50
2019-05-07T08:34:45.311Z,19.97
2019-05-07T08:39:46.806Z,21.47
2019-05-07T08:44:48.349Z,20.53
2019-05-07T08:49:52.314Z,19.73
2019-05-07T08:54:53.935Z,19.83
2019-05-07T09:00:00.247Z,17.45
2019-05-07T09:04:59.131Z,16.82
2019-05-07T09:10:02.465Z,14.63
2019-05-07T09:15:04.386Z,16.95
2019-05-07T09:20:09.121Z,17.00
2019-05-07T09:25:09.872Z,16.48
2019-05-07T09:30:12.787Z,17.82
2019-05-07T09:35:14.679Z,18.45
2019-05-07T09:40:16.196Z,19.57
2019-05-07T09:45:17.698Z,15.93
2019-05-07T09:50:19.350Z,17.23
2019-05-07T09:55:23.135Z,13.45
2019-05-07T10:00:24.333Z,13.13
2019-05-07T10:05:26.625Z,15.28
2019-05-07T10:10:28.206Z,14.00
2019-05-07T10:15:30.044Z,16.62
2019-05-07T10:20:32.740Z,14.95
2019-05-07T10:25:34.811Z,16.67
2019-05-07T10:30:37.939Z,14.38
2019-05-07T10:35:41.009Z,11.73
2019-05-07T10:40:43.751Z,13.22
2019-05-07T10:45:45.364Z,16.40
2019-05-07T10:50:46.900Z,17.17
2019-05-07T10:55:48.397Z,16.85
2019-05-07T11:00:51.972Z,19.40
2019-05-07T11:05:53.448Z,21.23
2019-05-07T11:10:54.950Z,15.18
2019-05-07T11:15:56.884Z,12.50
2019-05-07T11:20:58.553Z,12.68
2019-05-07T11:26:00.025Z,14.90
2019-05-07T11:31:02.292Z,12.85
2019-05-07T11:36:04.246Z,13.13
2019-05-07T11:41:05.916Z,12.25
2019-05-07T11:46:07.710Z,13.00
2019-05-07T11:51:09.688Z,16.12
2019-05-07T11:56:11.795Z,19.35
2019-05-07T12:01:13.784Z,12.68
2019-05-07T12:06:15.268Z,12.43
2019-05-07T12:11:17.155Z,11.95
2019-05-07T12:16:18.680Z,13.57
2019-05-07T12:21:23.627Z,13.48
2019-05-07T12:26:24.401Z,13.22
2019-05-07T12:31:26.108Z,17.35
2019-05-07T12:36:27.657Z,16.80
2019-05-07T12:41:29.506Z,13.98
2019-05-07T12:46:33.369Z,15.75
2019-05-07T12:51:37.636Z,13.35
2019-05-07T12:56:39.059Z,14.53
2019-05-07T13:01:42.196Z,16.10
2019-05-07T13:06:44.277Z,12.80
2019-05-07T13:11:45.791Z,16.10
2019-05-07T13:16:47.731Z,14.55
2019-05-07T13:21:50.073Z,14.70
2019-05-07T13:26:52.189Z,13.98
2019-05-07T13:31:54.471Z,14.95
2019-05-07T13:36:56.338Z,12.78
2019-05-07T13:41:57.881Z,14.07
2019-05-07T13:47:02.132Z,14.15
2019-05-07T13:52:03.939Z,13.68
2019-05-07T13:57:05.489Z,13.15
2019-05-07T14:02:07.841Z,15.68
2019-05-07T14:07:09.499Z,12.82
2019-05-07T14:12:12.331Z,14.53
2019-05-07T14:17:14.185Z,15.70
2019-05-07T14:22:19.150Z,15.40
2019-05-07T14:27:21.049Z,14.93
2019-05-07T14:32:23.191Z,20.55
2019-05-07T14:37:24.765Z,14.38
2019-05-07T14:42:27.227Z,15.32
2019-05-07T14:47:28.889Z,12.18
2019-05-07T14:52:33.798Z,14.38
2019-05-07T14:57:34.110Z,15.53
2019-05-07T15:02:36.753Z,20.62
2019-05-07T15:07:38.568Z,17.37
2019-05-07T15:12:40.138Z,18.07
2019-05-07T15:17:42.075Z,16.12
2019-05-07T15:22:49.592Z,15.28
2019-05-07T15:27:47.568Z,13.10
2019-05-07T15:32:49.415Z,13.90
2019-05-07T15:37:51.803Z,17.10
2019-05-07T15:42:53.433Z,14.45
2019-05-07T15:47:54.747Z,16.60
2019-05-07T15:52:58.711Z,15.63
2019-05-07T15:58:02.659Z,16.40
2019-05-07T16:03:04.701Z,12.80
2019-05-07T16:08:08.579Z,19.57
2019-05-07T16:13:13.731Z,12.55
2019-05-07T16:18:15.468Z,13.30
2019-05-07T16:23:18.131Z,14.85
2019-05-07T16:28:21.795Z,12.55
2019-05-07T16:33:23.841Z,13.85
2019-05-07T16:38:26.076Z,16.20
2019-05-07T16:43:27.622Z,14.53
2019-05-07T16:48:29.219Z,14.33
2019-05-07T16:53:33.070Z,14.40
2019-05-07T16:58:35.059Z,15.20
2019-05-07T17:03:36.792Z,13.65
2019-05-07T17:08:38.694Z,15.20
2019-05-07T17:13:42.277Z,15.90
2019-05-07T17:18:44.526Z,14.68
2019-05-07T17:23:46.748Z,11.83
2019-05-07T17:28:48.542Z,13.10
2019-05-07T17:33:51.652Z,12.30
2019-05-07T17:38:53.552Z,14.33
2019-05-07T17:43:54.907Z,12.80
2019-05-07T17:48:56.419Z,12.58
2019-05-07T17:54:00.272Z,13.43
2019-05-07T17:59:02.901Z,12.43
2019-05-07T18:04:04.662Z,12.65
2019-05-07T18:09:06.840Z,15.03
2019-05-07T18:14:08.717Z,15.30
2019-05-07T18:19:10.246Z,15.58
2019-05-07T18:24:16.410Z,12.15
2019-05-07T18:29:15.705Z,18.30
2019-05-07T18:34:17.906Z,15.08
2019-05-07T18:39:20.525Z,14.00
2019-05-07T18:44:22.563Z,14.25
2019-05-07T18:49:24.240Z,17.83
2019-05-07T18:54:30.897Z,17.70
2019-05-07T18:59:29.361Z,17.63
2019-05-07T19:04:32.797Z,18.27
2019-05-07T19:09:35.825Z,13.83
2019-05-07T19:14:37.354Z,15.00
2019-05-07T19:19:39.224Z,16.33
2019-05-07T19:24:47.115Z,15.33
2019-05-07T19:29:45.845Z,19.15
2019-05-07T19:34:47.729Z,18.57
2019-05-07T19:39:49.206Z,17.50
2019-05-07T19:44:51.872Z,17.50
2019-05-07T19:49:53.916Z,19.60
2019-05-07T19:55:00.691Z,21.57
2019-05-07T19:59:59.083Z,17.50
2019-05-07T20:05:03.311Z,18.60
2019-05-07T20:10:04.116Z,20.17
2019-05-07T20:15:05.984Z,22.13
2019-05-07T20:20:07.481Z,20.37
2019-05-07T20:25:18.115Z,21.53
2019-05-07T20:30:13.051Z,16.93
2019-05-07T20:35:15.339Z,25.43
2019-05-07T20:40:16.873Z,23.13
2019-05-07T20:45:18.494Z,21.60
2019-05-07T20:50:22.242Z,19.90
2019-05-07T20:55:30.489Z,20.43
2019-05-07T21:00:27.254Z,19.17
2019-05-07T21:05:29.026Z,19.37
2019-05-07T21:10:32.827Z,22.57
2019-05-07T21:15:35.129Z,20.50
2019-05-07T21:20:36.598Z,19.17
2019-05-07T21:25:45.548Z,21.27
2019-05-07T21:30:42.804Z,22.17
2019-05-07T21:35:44.427Z,23.53
2019-05-07T21:40:46.302Z,23.70
2019-05-07T21:45:48.357Z,22.67
2019-05-07T21:50:51.965Z,27.07
2019-05-07T21:56:01.830Z,25.33
2019-05-07T22:00:58.461Z,22.90
2019-05-07T22:06:02.471Z,20.53
2019-05-07T22:11:04.690Z,23.30
2019-05-07T22:16:07.225Z,25.63
2019-05-07T22:21:08.712Z,25.27
2019-05-07T22:26:20.127Z,23.70
2019-05-07T22:31:13.909Z,23.77
2019-05-07T22:36:15.428Z,23.27
2019-05-07T22:41:17.181Z,24.67
2019-05-07T22:46:18.608Z,21.80
2019-05-07T22:51:20.082Z,20.57
2019-05-07T22:56:34.253Z,22.63
2019-05-07T23:01:25.080Z,24.73
2019-05-07T23:06:27.034Z,20.70
2019-05-07T23:11:28.441Z,21.07
2019-05-07T23:16:32.407Z,26.07
2019-05-07T23:21:33.628Z,21.20
2019-05-07T23:26:47.289Z,21.07
2019-05-07T23:31:38.812Z,23.27
2019-05-07T23:36:42.100Z,21.20
2019-05-07T23:41:43.659Z,22.07
2019-05-07T23:46:45.234Z,23.50
2019-05-07T23:51:46.782Z,19.57
2019-05-07T23:57:04.473Z,17.93
